Grulla, Texas
Current Conditions -  °F | °C
As of 4:53 PM on Thursday 23 Oct 2014 (Local Time) from KMFE Reporting Station
Clear Clear  
Wind Chill: 85°   Ceiling: Unl
Heat Index: 86°   Visibility: 10mi
Dew Point: 63°   Wind: 3mph
Humidity: 48%   Direction: 10°N
Pressure: 30.02"   Gusts: NA
Location:  26.27°N, 98.65°W
Report Text: KMFE 232153Z 01003KT 10SM CLR 29/17 A3002 RMK AO2 SLP164 T02940172
Loading
Personal Weather Stations






























Interactive Weather Map
Tropical Storm Tracking
New forecast layout! Learn more

10-Day Weather Forecast

Advertisements
Track Severe Weather on mobile